createdAt,value
2019-05-23T00:01:10.474Z,8.50
2019-05-23T00:03:39.294Z,8.60
2019-05-23T00:06:11.746Z,8.60
2019-05-23T00:08:39.925Z,8.60
2019-05-23T00:11:14.282Z,8.50
2019-05-23T00:13:49.842Z,8.40
2019-05-23T00:16:17.838Z,8.40
2019-05-23T00:18:46.658Z,8.30
2019-05-23T00:21:14.689Z,8.30
2019-05-23T00:23:43.597Z,8.30
2019-05-23T00:26:12.363Z,8.30
2019-05-23T00:28:41.169Z,8.30
2019-05-23T00:31:19.896Z,8.30
2019-05-23T00:33:47.943Z,8.40
2019-05-23T00:36:16.765Z,8.10
2019-05-23T00:38:44.801Z,8.10
2019-05-23T00:41:12.886Z,8.10
2019-05-23T00:43:40.923Z,8.30
2019-05-23T00:46:08.976Z,8.30
2019-05-23T00:48:36.994Z,8.00
2019-05-23T00:51:05.547Z,8.00
2019-05-23T00:53:33.061Z,8.00
2019-05-23T00:56:01.062Z,8.00
2019-05-23T00:58:30.596Z,8.00
2019-05-23T01:00:59.387Z,8.10
2019-05-23T01:03:28.355Z,7.80
2019-05-23T01:05:56.308Z,7.80
2019-05-23T01:08:24.340Z,7.80
2019-05-23T01:10:52.357Z,7.70
2019-05-23T01:13:20.418Z,7.60
2019-05-23T01:15:48.441Z,7.50
2019-05-23T01:18:17.253Z,7.60
2019-05-23T01:20:48.914Z,7.60
2019-05-23T01:23:16.937Z,7.60
2019-05-23T01:25:45.829Z,7.70
2019-05-23T01:28:13.825Z,7.70
2019-05-23T01:30:44.329Z,7.70
2019-05-23T01:33:12.352Z,7.80
2019-05-23T01:35:40.383Z,7.90
2019-05-23T01:38:08.448Z,7.90
2019-05-23T01:40:36.482Z,7.70
2019-05-23T01:43:04.519Z,7.60
2019-05-23T01:45:32.558Z,7.40
2019-05-23T01:48:00.589Z,7.50
2019-05-23T01:50:28.638Z,7.50
2019-05-23T01:52:56.717Z,7.60
2019-05-23T01:55:24.782Z,7.70
2019-05-23T01:57:52.811Z,7.80
2019-05-23T02:00:20.866Z,7.80
2019-05-23T02:02:48.901Z,7.70
2019-05-23T02:05:16.936Z,7.80
2019-05-23T02:07:44.969Z,7.60
2019-05-23T02:10:13.955Z,7.50
2019-05-23T02:12:41.826Z,7.50
2019-05-23T02:15:09.911Z,7.30
2019-05-23T02:17:38.790Z,7.30
2019-05-23T02:20:07.641Z,7.40
2019-05-23T02:22:35.666Z,7.30
2019-05-23T02:25:03.713Z,7.20
2019-05-23T02:27:31.718Z,7.20
2019-05-23T02:29:59.755Z,7.20
2019-05-23T02:32:27.818Z,7.30
2019-05-23T02:34:55.826Z,7.20
2019-05-23T02:37:39.655Z,7.40
2019-05-23T02:40:08.494Z,7.40
2019-05-23T02:42:40.830Z,7.30
2019-05-23T02:45:08.870Z,7.30
2019-05-23T02:47:36.993Z,7.30
2019-05-23T02:50:05.761Z,7.30
2019-05-23T02:52:33.779Z,7.20
2019-05-23T02:55:01.820Z,7.20
2019-05-23T02:57:29.814Z,7.10
2019-05-23T02:59:57.862Z,7.20
2019-05-23T03:02:56.023Z,7.30
2019-05-23T03:05:24.053Z,7.20
2019-05-23T03:07:52.051Z,7.20
2019-05-23T03:10:20.121Z,7.40
2019-05-23T03:12:48.922Z,7.60
2019-05-23T03:15:17.055Z,7.60
2019-05-23T03:17:47.710Z,7.50
2019-05-23T03:20:15.796Z,7.50
2019-05-23T03:22:48.536Z,7.50
2019-05-23T03:28:31.126Z,7.50
2019-05-23T03:31:25.208Z,7.50
2019-05-23T03:33:27.159Z,7.40
2019-05-23T03:35:57.118Z,7.30
2019-05-23T03:38:25.154Z,7.40
2019-05-23T03:40:53.163Z,7.40
2019-05-23T03:43:21.245Z,7.20
2019-05-23T03:45:59.172Z,7.10
2019-05-23T03:48:27.174Z,7.00
2019-05-23T03:50:55.211Z,7.10
2019-05-23T03:53:23.648Z,7.10
2019-05-23T03:55:51.718Z,7.10
2019-05-23T03:58:20.507Z,7.20
2019-05-23T04:00:48.545Z,7.10
2019-05-23T04:03:16.688Z,7.20
2019-05-23T04:05:44.731Z,7.20
2019-05-23T04:08:12.789Z,7.20
2019-05-23T04:10:40.818Z,7.40
2019-05-23T04:13:08.865Z,7.30
2019-05-23T04:15:36.869Z,7.50
2019-05-23T04:18:05.710Z,7.50
2019-05-23T04:20:33.757Z,7.50
2019-05-23T04:23:01.800Z,7.60
2019-05-23T04:25:29.894Z,7.60
2019-05-23T04:27:57.959Z,7.60
2019-05-23T04:33:24.402Z,8.20
2019-05-23T04:35:53.194Z,8.20
2019-05-23T04:38:21.239Z,8.20
2019-05-23T04:40:49.330Z,8.10
2019-05-23T04:43:18.131Z,8.40
2019-05-23T04:45:46.161Z,8.40
2019-05-23T04:48:14.199Z,8.70
2019-05-23T04:50:42.229Z,8.60
2019-05-23T04:53:10.531Z,8.70
2019-05-23T04:55:38.566Z,8.90
2019-05-23T04:58:07.374Z,9.00
2019-05-23T05:00:35.405Z,9.00
2019-05-23T05:03:04.231Z,9.80
2019-05-23T05:05:32.261Z,9.80
2019-05-23T05:08:00.292Z,10.00
2019-05-23T05:10:28.327Z,10.20
2019-05-23T05:12:57.124Z,11.00
2019-05-23T05:15:25.156Z,11.00
2019-05-23T05:17:53.279Z,12.20
2019-05-23T05:20:22.109Z,14.30
2019-05-23T05:22:50.214Z,14.20
2019-05-23T05:25:18.220Z,14.90
2019-05-23T05:27:46.270Z,14.10
2019-05-23T05:30:14.344Z,14.10
2019-05-23T05:32:45.430Z,15.00
2019-05-23T05:35:10.504Z,15.10
2019-05-23T05:37:38.555Z,15.10
2019-05-23T05:40:07.349Z,15.10
2019-05-23T05:42:35.401Z,15.10
2019-05-23T05:45:03.419Z,15.20
2019-05-23T05:47:31.470Z,15.30
2019-05-23T05:49:59.486Z,15.10
2019-05-23T05:52:28.313Z,15.10
2019-05-23T05:54:56.376Z,15.10
2019-05-23T05:57:24.450Z,15.20
2019-05-23T05:59:52.529Z,15.30
2019-05-23T06:02:20.564Z,15.30
2019-05-23T06:04:49.376Z,15.30
2019-05-23T06:07:23.112Z,15.30
2019-05-23T06:09:51.143Z,15.40
2019-05-23T06:12:19.186Z,15.40
2019-05-23T06:14:47.225Z,15.40
2019-05-23T06:17:15.269Z,15.40
2019-05-23T06:19:43.313Z,15.60
2019-05-23T06:22:12.115Z,15.80
2019-05-23T06:24:48.110Z,15.80
2019-05-23T06:27:09.206Z,15.90
2019-05-23T06:29:37.251Z,16.00
2019-05-23T06:32:05.281Z,16.00
2019-05-23T06:34:33.385Z,16.00
2019-05-23T06:37:01.435Z,16.10
2019-05-23T06:39:30.233Z,16.50
2019-05-23T06:41:59.852Z,16.70
2019-05-23T06:44:27.892Z,16.70
2019-05-23T06:46:55.936Z,16.70
2019-05-23T06:49:24.057Z,16.80
2019-05-23T06:51:52.177Z,16.50
2019-05-23T06:54:20.310Z,17.00
2019-05-23T06:56:49.098Z,17.80
2019-05-23T06:59:17.142Z,17.70
2019-05-23T07:01:45.944Z,17.80
2019-05-23T07:04:14.050Z,17.70
2019-05-23T07:06:42.112Z,17.80
2019-05-23T07:09:10.156Z,18.20
2019-05-23T07:11:38.986Z,18.70
2019-05-23T07:14:07.012Z,18.60
2019-05-23T07:16:35.070Z,18.60
2019-05-23T07:19:03.889Z,18.90
2019-05-23T07:21:31.929Z,18.80
2019-05-23T07:23:59.958Z,18.60
2019-05-23T07:26:27.996Z,18.70
2019-05-23T07:28:56.042Z,18.90
2019-05-23T07:31:24.225Z,19.30
2019-05-23T07:34:01.988Z,19.80
2019-05-23T07:36:21.068Z,19.80
2019-05-23T07:38:49.876Z,19.10
2019-05-23T07:41:17.929Z,19.10
2019-05-23T07:43:46.750Z,19.60
2019-05-23T07:46:14.781Z,19.60
2019-05-23T07:48:42.868Z,19.80
2019-05-23T07:51:10.901Z,19.00
2019-05-23T07:53:54.858Z,18.70
2019-05-23T07:56:22.905Z,18.50
2019-05-23T07:58:51.030Z,17.30
2019-05-23T08:01:20.755Z,17.00
2019-05-23T08:03:49.485Z,16.70
2019-05-23T08:06:17.597Z,16.70
2019-05-23T08:08:45.665Z,18.30
2019-05-23T08:11:13.777Z,19.10
2019-05-23T08:13:41.772Z,19.60
2019-05-23T08:16:09.834Z,20.10
2019-05-23T08:18:37.951Z,19.90
2019-05-23T08:21:05.985Z,19.90
2019-05-23T08:23:34.018Z,19.70
2019-05-23T08:26:02.120Z,20.50
2019-05-23T08:28:30.097Z,20.30
2019-05-23T08:30:58.130Z,20.50
2019-05-23T08:33:26.194Z,21.00
2019-05-23T08:35:54.936Z,21.10
2019-05-23T08:38:23.736Z,21.70
2019-05-23T08:40:52.563Z,21.60
2019-05-23T08:43:20.610Z,21.60
2019-05-23T08:45:48.636Z,21.60
2019-05-23T08:48:16.743Z,21.90
2019-05-23T08:50:44.790Z,21.80
2019-05-23T08:53:12.839Z,22.30
2019-05-23T08:55:40.872Z,22.70
2019-05-23T08:58:09.753Z,22.50
2019-05-23T09:00:37.797Z,22.50
2019-05-23T09:03:06.586Z,22.70
2019-05-23T09:05:35.379Z,22.90
2019-05-23T09:08:04.171Z,22.70
2019-05-23T09:10:32.242Z,22.70
2019-05-23T09:13:01.034Z,23.20
2019-05-23T09:15:29.090Z,23.10
2019-05-23T09:17:57.891Z,22.10
2019-05-23T09:20:26.674Z,21.50
2019-05-23T09:22:55.560Z,21.50
2019-05-23T09:25:24.452Z,22.20
2019-05-23T09:27:52.448Z,22.20
2019-05-23T09:30:20.502Z,22.20
2019-05-23T09:32:48.553Z,22.40
2019-05-23T09:35:21.282Z,22.40
2019-05-23T09:37:45.610Z,22.40
2019-05-23T09:40:14.210Z,22.80
2019-05-23T09:42:42.268Z,22.80
2019-05-23T09:45:11.089Z,22.70
2019-05-23T09:47:39.116Z,22.60
2019-05-23T09:50:07.932Z,22.40
2019-05-23T09:52:35.943Z,22.40
2019-05-23T09:55:03.973Z,22.20
2019-05-23T09:57:32.749Z,22.40
2019-05-23T10:00:00.820Z,22.40
2019-05-23T10:02:28.898Z,22.50
2019-05-23T10:04:56.932Z,23.00
2019-05-23T10:07:25.000Z,23.40
2019-05-23T10:09:53.045Z,23.10
2019-05-23T10:12:22.563Z,23.40
2019-05-23T10:14:49.132Z,23.70
2019-05-23T10:17:17.177Z,23.90
2019-05-23T10:19:45.269Z,23.70
2019-05-23T10:22:14.092Z,22.60
2019-05-23T10:24:42.149Z,22.60
2019-05-23T10:27:10.940Z,21.90
2019-05-23T10:29:39.048Z,21.90
2019-05-23T10:32:07.058Z,21.90
2019-05-23T10:34:35.092Z,21.50
2019-05-23T10:37:03.130Z,22.00
2019-05-23T10:39:32.389Z,21.30
2019-05-23T10:42:01.192Z,21.40
2019-05-23T10:44:29.972Z,20.70
2019-05-23T10:46:58.043Z,20.70
2019-05-23T10:49:26.839Z,21.60
2019-05-23T10:51:54.900Z,21.50
2019-05-23T10:54:23.868Z,21.80
2019-05-23T10:56:51.946Z,21.80
2019-05-23T10:59:19.969Z,22.60
2019-05-23T11:01:48.011Z,23.30
2019-05-23T11:04:16.794Z,23.70
2019-05-23T11:06:45.691Z,23.70
2019-05-23T11:09:13.690Z,23.70
2019-05-23T11:11:41.748Z,23.80
2019-05-23T11:14:10.516Z,23.10
2019-05-23T11:16:38.600Z,23.10
2019-05-23T11:19:06.624Z,24.00
2019-05-23T11:21:34.737Z,24.00
2019-05-23T11:24:02.814Z,23.00
2019-05-23T11:26:30.845Z,23.20
2019-05-23T11:28:58.865Z,22.60
2019-05-23T11:31:26.898Z,22.20
2019-05-23T11:33:55.681Z,22.10
2019-05-23T11:36:34.756Z,22.70
2019-05-23T11:38:52.656Z,22.60
2019-05-23T11:41:20.744Z,23.10
2019-05-23T11:43:48.717Z,23.00
2019-05-23T11:46:16.740Z,23.30
2019-05-23T11:48:45.528Z,23.30
2019-05-23T11:51:14.324Z,23.10
2019-05-23T11:53:45.541Z,22.70
2019-05-23T11:56:12.028Z,22.40
2019-05-23T11:58:40.087Z,22.40
2019-05-23T12:01:09.522Z,22.60
2019-05-23T12:03:37.867Z,22.60
2019-05-23T12:06:06.505Z,22.60
2019-05-23T12:08:34.546Z,23.10
2019-05-23T12:11:02.572Z,22.70
2019-05-23T12:13:31.476Z,22.40
2019-05-23T12:15:59.504Z,22.40
2019-05-23T12:18:27.612Z,23.00
2019-05-23T12:20:59.427Z,23.50
2019-05-23T12:23:24.581Z,24.20
2019-05-23T12:25:52.610Z,24.20
2019-05-23T12:28:20.637Z,24.50
2019-05-23T12:30:48.656Z,24.40
2019-05-23T12:33:16.704Z,23.90
2019-05-23T12:35:44.792Z,23.30
2019-05-23T12:38:12.889Z,23.30
2019-05-23T12:40:41.692Z,22.50
2019-05-23T12:43:09.749Z,22.50
2019-05-23T12:45:38.645Z,23.30
2019-05-23T12:48:08.616Z,23.30
2019-05-23T12:50:36.642Z,23.40
2019-05-23T12:53:04.689Z,23.70
2019-05-23T12:55:32.765Z,23.80
2019-05-23T12:58:01.659Z,23.10
2019-05-23T13:00:32.780Z,23.10
2019-05-23T13:03:00.823Z,23.00
2019-05-23T13:05:28.857Z,23.20
2019-05-23T13:07:56.814Z,23.50
2019-05-23T13:10:25.544Z,23.70
2019-05-23T13:12:53.670Z,24.00
2019-05-23T13:15:22.457Z,24.30
2019-05-23T13:17:50.524Z,24.30
2019-05-23T13:20:19.309Z,23.50
2019-05-23T13:22:47.342Z,23.50
2019-05-23T13:25:15.416Z,23.20
2019-05-23T13:27:43.404Z,23.40
2019-05-23T13:30:12.197Z,23.10
2019-05-23T13:32:41.015Z,22.70
2019-05-23T13:35:09.054Z,22.60
2019-05-23T13:37:52.388Z,22.90
2019-05-23T13:40:05.087Z,23.10
2019-05-23T13:42:33.139Z,22.80
2019-05-23T13:45:01.265Z,23.20
2019-05-23T13:47:29.292Z,23.30
2019-05-23T13:49:57.381Z,22.90
2019-05-23T13:52:25.492Z,22.90
2019-05-23T13:54:53.523Z,23.10
2019-05-23T13:57:21.578Z,23.00
2019-05-23T13:59:49.602Z,22.90
2019-05-23T14:02:17.606Z,22.90
2019-05-23T14:04:45.703Z,22.60
2019-05-23T14:07:14.502Z,21.80
2019-05-23T14:09:42.533Z,21.70
2019-05-23T14:12:25.995Z,21.40
2019-05-23T14:14:38.733Z,21.20
2019-05-23T14:17:10.249Z,21.20
2019-05-23T14:19:39.144Z,21.60
2019-05-23T14:22:07.936Z,21.70
2019-05-23T14:24:37.931Z,21.70
2019-05-23T14:27:08.806Z,21.90
2019-05-23T14:29:36.847Z,22.10
2019-05-23T14:32:19.734Z,22.10
2019-05-23T14:34:47.932Z,22.20
2019-05-23T14:37:32.390Z,22.00
2019-05-23T14:40:01.197Z,22.00
2019-05-23T14:42:35.085Z,22.00
2019-05-23T14:45:03.885Z,21.50
2019-05-23T14:47:31.918Z,21.50
2019-05-23T14:49:59.947Z,21.30
2019-05-23T14:52:35.285Z,21.10
2019-05-23T14:55:03.319Z,21.00
2019-05-23T14:57:32.129Z,21.30
2019-05-23T15:00:00.917Z,21.40
2019-05-23T15:02:29.676Z,21.70
2019-05-23T15:04:57.681Z,21.70
2019-05-23T15:07:25.725Z,21.60
2019-05-23T15:09:53.787Z,21.90
2019-05-23T15:12:22.584Z,21.70
2019-05-23T15:14:51.381Z,21.60
2019-05-23T15:17:19.425Z,21.60
2019-05-23T15:19:47.554Z,21.40
2019-05-23T15:22:15.591Z,21.30
2019-05-23T15:24:44.385Z,21.10
2019-05-23T15:27:12.411Z,21.10
2019-05-23T15:29:41.970Z,21.00
2019-05-23T15:32:10.023Z,21.00
2019-05-23T15:34:38.821Z,20.80
2019-05-23T15:37:06.865Z,20.80
2019-05-23T15:39:35.669Z,20.80
2019-05-23T15:42:03.742Z,20.80
2019-05-23T15:44:32.639Z,20.90
2019-05-23T15:47:01.410Z,20.90
2019-05-23T15:49:30.214Z,20.50
2019-05-23T15:52:13.143Z,20.50
2019-05-23T15:54:43.445Z,20.40
2019-05-23T15:57:14.166Z,20.50
2019-05-23T15:59:42.959Z,20.70
2019-05-23T16:02:12.333Z,20.60
2019-05-23T16:04:40.355Z,20.60
2019-05-23T16:07:08.379Z,20.60
2019-05-23T16:09:36.397Z,20.50
2019-05-23T16:12:04.443Z,20.50
2019-05-23T16:14:33.237Z,20.10
2019-05-23T16:17:01.305Z,20.10
2019-05-23T16:19:29.384Z,20.00
2019-05-23T16:21:57.420Z,20.00
2019-05-23T16:24:25.445Z,20.10
2019-05-23T16:26:53.463Z,20.30
2019-05-23T16:29:22.248Z,20.00
2019-05-23T16:31:51.261Z,19.90
2019-05-23T16:34:20.094Z,19.90
2019-05-23T16:36:48.131Z,19.90
2019-05-23T16:39:16.897Z,19.90
2019-05-23T16:41:45.791Z,19.80
2019-05-23T16:44:14.987Z,19.70
2019-05-23T16:46:43.798Z,19.50
2019-05-23T16:49:11.822Z,19.50
2019-05-23T16:51:39.924Z,19.60
2019-05-23T16:54:07.949Z,19.60
2019-05-23T16:56:53.733Z,19.70
2019-05-23T16:59:25.364Z,19.60
2019-05-23T17:02:00.410Z,19.60
2019-05-23T17:04:27.714Z,19.70
2019-05-23T17:07:14.578Z,19.60
2019-05-23T17:10:06.715Z,19.60
2019-05-23T17:15:12.793Z,19.30
2019-05-23T17:18:02.030Z,19.30
2019-05-23T17:20:25.363Z,19.30
2019-05-23T17:22:58.177Z,19.30
2019-05-23T17:25:28.148Z,19.30
2019-05-23T17:27:56.936Z,19.30
2019-05-23T17:30:28.342Z,19.20
2019-05-23T17:32:56.491Z,19.20
2019-05-23T17:35:24.545Z,19.10
2019-05-23T17:37:52.609Z,19.00
2019-05-23T17:40:24.977Z,19.00
2019-05-23T17:42:48.757Z,18.90
2019-05-23T17:45:16.771Z,18.90
2019-05-23T17:47:44.809Z,18.90
2019-05-23T17:50:12.848Z,18.90
2019-05-23T17:52:41.654Z,18.70
2019-05-23T17:55:09.689Z,18.70
2019-05-23T17:57:37.685Z,18.60
2019-05-23T18:00:07.112Z,18.50
2019-05-23T18:02:35.141Z,18.50
2019-05-23T18:05:04.659Z,18.40
2019-05-23T18:07:33.472Z,18.40
2019-05-23T18:10:01.591Z,18.40
2019-05-23T18:12:29.582Z,18.40
2019-05-23T18:14:58.627Z,18.10
2019-05-23T18:17:26.627Z,18.10
2019-05-23T18:19:54.715Z,18.10
2019-05-23T18:22:23.617Z,18.00
2019-05-23T18:24:51.784Z,17.90
2019-05-23T18:27:19.716Z,17.90
2019-05-23T18:29:47.809Z,17.80
2019-05-23T18:32:16.608Z,17.60
2019-05-23T18:34:44.685Z,17.60
2019-05-23T18:37:13.510Z,17.50
2019-05-23T18:39:41.497Z,17.50
2019-05-23T18:42:09.519Z,17.50
2019-05-23T18:44:37.553Z,17.40
2019-05-23T18:47:08.615Z,17.40
2019-05-23T18:49:36.622Z,17.20
2019-05-23T18:52:04.669Z,17.20
2019-05-23T18:54:32.703Z,17.10
2019-05-23T18:57:00.812Z,17.00
2019-05-23T18:59:28.869Z,16.90
2019-05-23T19:01:56.849Z,16.70
2019-05-23T19:04:24.893Z,16.70
2019-05-23T19:06:52.954Z,16.70
2019-05-23T19:09:20.988Z,16.60
2019-05-23T19:11:49.020Z,16.50
2019-05-23T19:14:17.795Z,16.50
2019-05-23T19:16:46.573Z,16.40
2019-05-23T19:19:15.379Z,16.40
2019-05-23T19:21:43.397Z,16.40
2019-05-23T19:24:11.761Z,16.30
2019-05-23T19:26:39.753Z,16.20
2019-05-23T19:29:07.778Z,16.10
2019-05-23T19:31:35.790Z,16.00
2019-05-23T19:34:03.869Z,15.90
2019-05-23T19:36:32.022Z,15.90
2019-05-23T19:39:00.195Z,15.80
2019-05-23T19:41:36.842Z,15.70
2019-05-23T19:43:56.293Z,15.60
2019-05-23T19:46:25.182Z,15.50
2019-05-23T19:48:53.232Z,15.50
2019-05-23T19:51:21.217Z,15.50
2019-05-23T19:53:49.265Z,15.30
2019-05-23T19:56:17.276Z,15.40
2019-05-23T19:58:45.317Z,15.40
2019-05-23T20:01:14.104Z,15.30
2019-05-23T20:03:42.997Z,15.20
2019-05-23T20:06:11.906Z,15.20
2019-05-23T20:08:39.926Z,15.20
2019-05-23T20:11:08.029Z,15.20
2019-05-23T20:13:36.832Z,14.90
2019-05-23T20:16:04.891Z,14.90
2019-05-23T20:18:34.904Z,14.80
2019-05-23T20:21:03.726Z,14.90
2019-05-23T20:23:31.780Z,14.90
2019-05-23T20:25:59.828Z,15.00
2019-05-23T20:28:28.621Z,14.90
2019-05-23T20:30:57.171Z,14.90
2019-05-23T20:33:25.180Z,14.90
2019-05-23T20:35:53.262Z,14.90
2019-05-23T20:38:21.224Z,14.70
2019-05-23T20:40:49.289Z,14.60
2019-05-23T20:43:17.329Z,14.50
2019-05-23T20:45:45.360Z,14.30
2019-05-23T20:48:13.414Z,14.40
2019-05-23T20:50:41.470Z,14.20
2019-05-23T20:53:09.649Z,14.10
2019-05-23T20:55:37.592Z,14.00
2019-05-23T20:58:06.388Z,13.90
2019-05-23T21:00:39.832Z,13.80
2019-05-23T21:03:07.948Z,13.80
2019-05-23T21:05:36.757Z,13.90
2019-05-23T21:08:04.815Z,13.90
2019-05-23T21:10:51.432Z,13.90
2019-05-23T21:13:20.319Z,14.00
2019-05-23T21:15:48.378Z,13.90
2019-05-23T21:18:16.444Z,14.00
2019-05-23T21:20:45.337Z,13.90
2019-05-23T21:23:14.116Z,14.00
2019-05-23T21:25:43.382Z,13.90
2019-05-23T21:28:11.405Z,13.90
2019-05-23T21:30:39.469Z,13.70
2019-05-23T21:33:08.977Z,13.50
2019-05-23T21:35:37.005Z,13.50
2019-05-23T21:38:06.543Z,13.40
2019-05-23T21:40:38.201Z,13.20
2019-05-23T21:43:07.096Z,13.20
2019-05-23T21:45:35.138Z,13.20
2019-05-23T21:48:03.515Z,13.20
2019-05-23T21:50:31.330Z,13.30
2019-05-23T21:52:59.344Z,13.30
2019-05-23T21:55:41.230Z,13.30
2019-05-23T21:58:09.325Z,13.20
2019-05-23T22:01:18.789Z,13.00
2019-05-23T22:04:05.605Z,13.00
2019-05-23T22:06:38.606Z,12.90
2019-05-23T22:09:06.605Z,13.00
2019-05-23T22:11:34.681Z,13.20
2019-05-23T22:14:02.705Z,13.10
2019-05-23T22:16:30.736Z,12.90
2019-05-23T22:18:59.560Z,12.60
2019-05-23T22:21:27.592Z,12.60
2019-05-23T22:23:55.632Z,12.50
2019-05-23T22:26:23.640Z,12.50
2019-05-23T22:28:52.535Z,12.40
2019-05-23T22:31:20.547Z,12.40
2019-05-23T22:33:52.522Z,12.40
2019-05-23T22:36:20.536Z,12.50
2019-05-23T22:38:48.614Z,12.50
2019-05-23T22:41:16.683Z,12.40
2019-05-23T22:43:45.569Z,12.30
2019-05-23T22:46:15.093Z,12.40
2019-05-23T22:48:43.849Z,12.30
2019-05-23T22:51:12.640Z,12.10
2019-05-23T22:53:41.433Z,12.10
2019-05-23T22:56:10.389Z,12.20
2019-05-23T22:58:38.412Z,12.20
2019-05-23T23:01:06.438Z,12.20
2019-05-23T23:03:34.460Z,12.10
2019-05-23T23:06:02.531Z,12.00
2019-05-23T23:08:31.305Z,12.00
2019-05-23T23:11:00.060Z,11.90
2019-05-23T23:13:38.072Z,12.00
2019-05-23T23:15:56.099Z,12.00
2019-05-23T23:18:24.192Z,11.80
2019-05-23T23:20:52.234Z,11.60
2019-05-23T23:23:20.261Z,11.80
2019-05-23T23:25:48.284Z,12.00
2019-05-23T23:28:17.081Z,11.80
2019-05-23T23:30:45.895Z,11.90
2019-05-23T23:33:13.935Z,11.90
2019-05-23T23:35:42.738Z,11.50
2019-05-23T23:38:10.764Z,11.50
2019-05-23T23:40:38.796Z,11.40
2019-05-23T23:43:06.844Z,11.20
2019-05-23T23:45:41.306Z,11.20
2019-05-23T23:48:14.944Z,11.20
2019-05-23T23:50:48.721Z,11.40
2019-05-23T23:53:22.346Z,11.30
2019-05-23T23:55:56.092Z,11.40
2019-05-23T23:58:23.615Z,11.50
